createdAt,value
2018-02-09T00:01:08.115Z,128.68
2018-02-09T00:03:37.067Z,136.68
2018-02-09T00:06:06.780Z,129.90
2018-02-09T00:08:35.996Z,121.22
2018-02-09T00:11:04.936Z,129.55
2018-02-09T00:13:33.859Z,127.78
2018-02-09T00:16:03.584Z,124.82
2018-02-09T00:18:32.523Z,126.00
2018-02-09T00:21:01.491Z,131.82
2018-02-09T00:23:30.443Z,126.72
2018-02-09T00:26:00.192Z,127.85
2018-02-09T00:28:29.145Z,130.00
2018-02-09T00:30:58.916Z,136.55
2018-02-09T00:33:27.851Z,127.72
2018-02-09T00:35:56.796Z,140.02
2018-02-09T00:38:25.736Z,121.50
2018-02-09T00:40:54.733Z,133.37
2018-02-09T00:43:23.733Z,133.20
2018-02-09T00:45:52.692Z,117.20
2018-02-09T00:48:22.361Z,123.15
2018-02-09T00:50:51.332Z,132.12
2018-02-09T00:53:20.289Z,121.22
2018-02-09T00:55:50.280Z,123.28
2018-02-09T00:58:19.265Z,134.85
2018-02-09T01:00:48.969Z,133.07
2018-02-09T01:03:17.888Z,122.62
2018-02-09T01:05:46.852Z,130.45
2018-02-09T01:08:15.773Z,131.40
2018-02-09T01:10:45.485Z,134.90
2018-02-09T01:13:14.405Z,137.60
2018-02-09T01:15:43.369Z,133.73
2018-02-09T01:18:13.063Z,143.98
2018-02-09T01:20:42.053Z,113.18
2018-02-09T01:23:11.040Z,119.45
2018-02-09T01:25:39.991Z,137.80
2018-02-09T01:28:11.176Z,124.90
2018-02-09T01:30:40.125Z,131.68
2018-02-09T01:33:09.103Z,124.85
2018-02-09T01:35:38.818Z,128.62
2018-02-09T01:38:07.820Z,121.93
2018-02-09T01:40:36.734Z,125.43
2018-02-09T01:43:05.690Z,130.35
2018-02-09T01:45:34.716Z,127.07
2018-02-09T01:48:03.667Z,126.10
2018-02-09T01:50:33.351Z,115.18
2018-02-09T01:53:02.353Z,122.78
2018-02-09T01:55:32.102Z,128.65
2018-02-09T01:58:02.465Z,119.57
2018-02-09T02:00:31.391Z,123.10
2018-02-09T02:03:01.127Z,125.93
2018-02-09T02:05:30.065Z,127.53
2018-02-09T02:08:00.806Z,124.18
2018-02-09T02:10:29.883Z,116.22
2018-02-09T02:12:59.032Z,127.50
2018-02-09T02:15:27.998Z,124.82
2018-02-09T02:17:56.931Z,116.45
2018-02-09T02:20:25.866Z,105.37
2018-02-09T02:22:54.807Z,121.07
2018-02-09T02:25:23.751Z,102.15
2018-02-09T02:27:53.001Z,102.47
2018-02-09T02:30:21.992Z,108.32
2018-02-09T02:32:50.912Z,105.30
2018-02-09T02:35:19.892Z,104.63
2018-02-09T02:37:48.868Z,108.72
2018-02-09T02:40:17.808Z,112.22
2018-02-09T02:42:46.769Z,117.07
2018-02-09T02:45:16.545Z,107.25
2018-02-09T02:47:46.269Z,121.20
2018-02-09T02:50:15.213Z,113.72
2018-02-09T02:52:44.154Z,111.85
2018-02-09T02:55:13.076Z,100.65
2018-02-09T02:57:42.000Z,111.75
2018-02-09T03:00:10.963Z,122.57
2018-02-09T03:02:39.874Z,115.32
2018-02-09T03:05:09.592Z,113.40
2018-02-09T03:07:38.537Z,109.30
2018-02-09T03:10:07.569Z,102.72
2018-02-09T03:12:36.504Z,107.18
2018-02-09T03:15:05.444Z,94.25
2018-02-09T03:17:34.426Z,112.07
2018-02-09T03:20:03.560Z,106.93
2018-02-09T03:22:34.172Z,99.40
2018-02-09T03:25:03.705Z,108.87
2018-02-09T03:27:33.396Z,112.05
2018-02-09T03:30:02.393Z,104.25
2018-02-09T03:32:32.087Z,106.25
2018-02-09T03:35:01.041Z,117.13
2018-02-09T03:37:31.386Z,115.20
2018-02-09T03:40:00.358Z,105.45
2018-02-09T03:42:29.297Z,113.55
2018-02-09T03:44:58.272Z,109.03
2018-02-09T03:47:27.254Z,104.45
2018-02-09T03:49:56.213Z,110.47
2018-02-09T03:52:25.143Z,106.22
2018-02-09T03:54:54.076Z,107.15
2018-02-09T03:57:23.840Z,109.57
2018-02-09T03:59:52.808Z,111.10
2018-02-09T04:02:25.166Z,112.75
2018-02-09T04:04:54.188Z,104.18
2018-02-09T04:07:23.128Z,112.00
2018-02-09T04:09:52.888Z,105.55
2018-02-09T04:12:21.902Z,111.05
2018-02-09T04:14:50.848Z,99.60
2018-02-09T04:17:19.770Z,102.80
2018-02-09T04:19:48.702Z,104.38
2018-02-09T04:22:17.663Z,115.82
2018-02-09T04:24:46.584Z,106.45
2018-02-09T04:27:16.341Z,108.47
2018-02-09T04:29:45.278Z,103.00
2018-02-09T04:32:14.291Z,106.28
2018-02-09T04:34:44.025Z,113.60
2018-02-09T04:37:12.976Z,117.65
2018-02-09T04:39:41.911Z,110.00
2018-02-09T04:42:10.817Z,104.72
2018-02-09T04:44:39.732Z,94.97
2018-02-09T04:47:08.778Z,97.45
2018-02-09T04:49:37.754Z,111.20
2018-02-09T04:52:07.508Z,104.80
2018-02-09T04:54:36.438Z,109.80
2018-02-09T04:57:05.590Z,112.20
2018-02-09T04:59:35.240Z,103.78
2018-02-09T05:02:04.224Z,94.15
2018-02-09T05:04:33.907Z,113.85
2018-02-09T05:07:02.948Z,107.80
2018-02-09T05:09:32.704Z,107.30
2018-02-09T05:12:01.701Z,96.37
2018-02-09T05:14:30.611Z,100.78
2018-02-09T05:17:01.928Z,97.18
2018-02-09T05:19:31.169Z,104.30
2018-02-09T05:22:00.907Z,110.88
2018-02-09T05:24:31.014Z,106.82
2018-02-09T05:27:00.030Z,110.68
2018-02-09T05:29:29.033Z,118.68
2018-02-09T05:31:57.989Z,112.12
2018-02-09T05:34:26.885Z,99.75
2018-02-09T05:36:56.661Z,105.03
2018-02-09T05:39:25.622Z,98.82
2018-02-09T05:41:55.632Z,95.28
2018-02-09T05:44:24.623Z,97.47
2018-02-09T05:46:53.640Z,106.10
2018-02-09T05:49:22.654Z,105.25
2018-02-09T05:51:51.572Z,101.55
2018-02-09T05:54:20.514Z,97.57
2018-02-09T05:56:49.446Z,105.30
2018-02-09T05:59:19.183Z,109.00
2018-02-09T06:01:51.251Z,95.87
2018-02-09T06:04:20.251Z,103.55
2018-02-09T06:06:49.972Z,109.40
2018-02-09T06:09:18.919Z,114.28
2018-02-09T06:11:47.893Z,96.82
2018-02-09T06:14:16.866Z,112.60
2018-02-09T06:16:45.917Z,115.50
2018-02-09T06:19:15.011Z,114.35
2018-02-09T06:21:44.733Z,118.68
2018-02-09T06:24:13.797Z,121.45
2018-02-09T06:26:47.364Z,134.80
2018-02-09T06:29:16.347Z,150.25
2018-02-09T06:31:45.344Z,151.30
2018-02-09T06:34:14.413Z,143.40
2018-02-09T06:36:43.429Z,152.55
2018-02-09T06:39:12.441Z,143.80
2018-02-09T06:41:41.385Z,153.77
2018-02-09T06:44:11.211Z,148.77
2018-02-09T06:46:40.164Z,148.60
2018-02-09T06:49:09.211Z,140.90
2018-02-09T06:51:38.957Z,138.10
2018-02-09T06:54:07.933Z,137.18
2018-02-09T06:56:37.011Z,150.10
2018-02-09T06:59:06.051Z,143.95
2018-02-09T07:01:35.880Z,158.60
2018-02-09T07:04:05.734Z,142.52
2018-02-09T07:06:34.733Z,145.93
2018-02-09T07:09:04.049Z,146.25
2018-02-09T07:11:33.056Z,143.98
2018-02-09T07:14:02.020Z,151.35
2018-02-09T07:16:31.021Z,157.77
2018-02-09T07:18:59.993Z,144.20
2018-02-09T07:21:29.760Z,137.15
2018-02-09T07:23:59.549Z,144.85
2018-02-09T07:26:28.702Z,141.23
2018-02-09T07:28:57.869Z,133.32
2018-02-09T07:31:26.883Z,137.57
2018-02-09T07:33:56.740Z,125.45
2018-02-09T07:36:26.104Z,136.55
2018-02-09T07:38:55.158Z,123.43
2018-02-09T07:41:24.308Z,137.62
2018-02-09T07:43:53.345Z,143.15
2018-02-09T07:46:22.325Z,135.05
2018-02-09T07:48:51.424Z,128.90
2018-02-09T07:51:20.638Z,138.30
2018-02-09T07:53:50.370Z,133.07
2018-02-09T07:56:19.339Z,130.18
2018-02-09T07:58:49.180Z,125.25
2018-02-09T08:01:18.133Z,110.70
2018-02-09T08:03:47.097Z,132.15
2018-02-09T08:06:16.139Z,120.65
2018-02-09T08:08:45.940Z,123.13
2018-02-09T08:11:15.748Z,114.07
2018-02-09T08:13:44.995Z,122.00
2018-02-09T08:16:14.249Z,102.62
2018-02-09T08:18:44.011Z,117.57
2018-02-09T08:21:13.035Z,112.95
2018-02-09T08:23:42.874Z,104.65
2018-02-09T08:26:12.622Z,115.37
2018-02-09T08:28:41.691Z,108.03
2018-02-09T08:31:11.498Z,113.28
2018-02-09T08:33:41.278Z,110.60
2018-02-09T08:36:10.300Z,113.10
2018-02-09T08:38:40.032Z,113.15
2018-02-09T08:41:09.809Z,116.82
2018-02-09T08:43:38.872Z,104.47
2018-02-09T08:46:07.907Z,104.97
2018-02-09T08:48:37.688Z,110.88
2018-02-09T08:51:07.742Z,103.32
2018-02-09T08:53:37.470Z,105.45
2018-02-09T08:56:06.530Z,100.68
2018-02-09T08:58:36.333Z,105.97
2018-02-09T09:01:05.357Z,114.37
2018-02-09T09:03:35.142Z,104.25
2018-02-09T09:06:05.173Z,107.10
2018-02-09T09:08:35.006Z,103.90
2018-02-09T09:12:06.404Z,112.47
2018-02-09T09:14:35.744Z,108.45
2018-02-09T09:17:05.624Z,113.40
2018-02-09T09:19:34.703Z,104.12
2018-02-09T09:22:04.429Z,103.43
2018-02-09T09:24:33.393Z,93.62
2018-02-09T09:27:02.678Z,110.45
2018-02-09T09:29:31.668Z,98.62
2018-02-09T09:32:31.221Z,103.62
2018-02-09T09:35:00.202Z,107.28
2018-02-09T09:37:29.192Z,106.68
2018-02-09T09:39:58.229Z,102.15
2018-02-09T09:42:28.021Z,86.07
2018-02-09T09:44:56.964Z,81.43
2018-02-09T09:47:26.061Z,104.50
2018-02-09T09:49:55.093Z,98.18
2018-02-09T09:52:24.206Z,98.25
2018-02-09T09:54:54.148Z,89.85
2018-02-09T09:57:24.130Z,87.97
2018-02-09T09:59:54.041Z,79.03
2018-02-09T10:02:31.837Z,79.43
2018-02-09T10:05:01.634Z,90.05
2018-02-09T10:07:30.634Z,79.90
2018-02-09T10:13:30.979Z,83.57
2018-02-09T10:15:59.951Z,90.05
2018-02-09T10:18:28.904Z,91.30
2018-02-09T10:20:58.604Z,86.43
2018-02-09T10:23:28.288Z,91.65
2018-02-09T10:25:58.011Z,89.85
2018-02-09T10:28:31.946Z,86.20
2018-02-09T10:31:01.836Z,77.07
2018-02-09T10:33:31.827Z,88.00
2018-02-09T10:36:00.799Z,77.47
2018-02-09T10:38:29.892Z,88.35
2018-02-09T10:40:59.017Z,81.55
2018-02-09T10:43:27.965Z,78.10
2018-02-09T10:45:57.034Z,84.55
2018-02-09T10:48:26.809Z,82.28
2018-02-09T10:50:56.634Z,87.97
2018-02-09T10:53:25.740Z,85.47
2018-02-09T10:55:55.558Z,82.30
2018-02-09T10:58:24.905Z,86.57
2018-02-09T11:00:58.059Z,80.65
2018-02-09T11:03:27.865Z,81.78
2018-02-09T11:05:57.651Z,76.47
2018-02-09T11:08:26.686Z,84.68
2018-02-09T11:10:56.645Z,85.55
2018-02-09T11:13:29.904Z,85.28
2018-02-09T11:15:59.233Z,80.18
2018-02-09T11:18:29.064Z,79.05
2018-02-09T11:20:58.415Z,77.93
2018-02-09T11:23:28.289Z,83.62
2018-02-09T11:25:57.580Z,78.07
2018-02-09T11:28:27.831Z,74.68
2018-02-09T11:30:56.923Z,79.05
2018-02-09T11:33:26.546Z,82.00
2018-02-09T11:35:55.693Z,83.30
2018-02-09T11:38:24.719Z,76.37
2018-02-09T11:40:53.728Z,74.65
2018-02-09T11:43:23.652Z,86.47
2018-02-09T11:46:56.093Z,83.55
2018-02-09T11:49:25.176Z,76.18
2018-02-09T11:51:54.140Z,79.35
2018-02-09T11:54:23.197Z,82.12
2018-02-09T11:56:52.239Z,94.60
2018-02-09T11:59:21.217Z,77.70
2018-02-09T12:01:50.215Z,87.95
2018-02-09T12:04:26.221Z,91.72
2018-02-09T12:06:55.445Z,94.95
2018-02-09T12:09:30.195Z,92.00
2018-02-09T12:11:59.385Z,91.55
2018-02-09T12:14:28.372Z,78.20
2018-02-09T12:16:57.645Z,84.87
2018-02-09T12:19:32.304Z,84.95
2018-02-09T12:22:04.368Z,80.53
2018-02-09T12:24:33.517Z,81.75
2018-02-09T12:27:03.431Z,84.93
2018-02-09T12:29:36.471Z,86.10
2018-02-09T12:32:05.264Z,84.00
2018-02-09T12:34:34.324Z,82.65
2018-02-09T12:37:04.340Z,75.50
2018-02-09T12:39:34.152Z,80.78
2018-02-09T12:42:03.361Z,85.50
2018-02-09T12:44:33.479Z,90.78
2018-02-09T12:47:02.687Z,72.72
2018-02-09T12:49:31.696Z,78.68
2018-02-09T12:52:00.749Z,80.25
2018-02-09T12:54:30.570Z,79.43
2018-02-09T12:57:00.334Z,77.22
2018-02-09T12:59:29.336Z,78.57
2018-02-09T13:01:58.298Z,73.55
2018-02-09T13:04:27.457Z,82.60
2018-02-09T13:06:57.288Z,72.22
2018-02-09T13:09:26.476Z,75.93
2018-02-09T13:11:56.373Z,74.95
2018-02-09T13:17:04.601Z,86.45
2018-02-09T13:19:34.554Z,71.72
2018-02-09T13:22:04.065Z,79.45
2018-02-09T13:24:34.149Z,77.95
2018-02-09T13:27:04.019Z,78.85
2018-02-09T13:29:33.040Z,85.70
2018-02-09T13:32:02.298Z,86.30
2018-02-09T13:34:32.242Z,83.53
2018-02-09T13:37:14.551Z,71.90
2018-02-09T13:39:43.676Z,74.57
2018-02-09T13:42:13.582Z,81.63
2018-02-09T13:44:43.387Z,83.70
2018-02-09T13:47:12.474Z,84.32
2018-02-09T13:49:41.504Z,78.50
2018-02-09T13:52:10.553Z,80.70
2018-02-09T13:54:39.847Z,80.00
2018-02-09T13:57:08.920Z,78.90
2018-02-09T14:04:07.248Z,76.12
2018-02-09T14:06:36.376Z,68.55
2018-02-09T14:09:06.864Z,85.47
2018-02-09T14:11:36.109Z,86.68
2018-02-09T14:18:36.238Z,83.75
2018-02-09T14:21:05.270Z,76.78
2018-02-09T14:23:34.272Z,71.18
2018-02-09T14:26:03.275Z,83.75
2018-02-09T14:28:36.845Z,76.45
2018-02-09T14:31:05.961Z,83.97
2018-02-09T14:33:35.843Z,73.45
2018-02-09T14:36:05.661Z,75.57
2018-02-09T14:38:35.788Z,74.62
2018-02-09T14:41:06.003Z,74.40
2018-02-09T14:43:35.776Z,72.62
2018-02-09T14:46:05.671Z,64.45
2018-02-09T14:48:34.741Z,70.03
2018-02-09T14:51:03.759Z,70.62
2018-02-09T14:53:32.730Z,65.43
2018-02-09T14:56:01.783Z,72.22
2018-02-09T14:58:30.961Z,85.60
2018-02-09T15:01:14.725Z,77.05
2018-02-09T15:03:43.710Z,79.45
2018-02-09T15:06:12.818Z,75.32
2018-02-09T15:08:42.867Z,70.20
2018-02-09T15:11:11.909Z,80.00
2018-02-09T15:13:41.059Z,75.62
2018-02-09T15:16:10.118Z,72.60
2018-02-09T15:18:39.964Z,75.30
2018-02-09T15:21:09.127Z,69.28
2018-02-09T15:23:38.179Z,77.03
2018-02-09T15:26:08.101Z,75.25
2018-02-09T15:28:38.083Z,71.80
2018-02-09T15:31:07.369Z,74.22
2018-02-09T15:33:37.132Z,72.20
2018-02-09T15:36:06.272Z,67.07
2018-02-09T15:38:36.034Z,64.87
2018-02-09T15:41:05.463Z,67.00
2018-02-09T15:43:35.277Z,71.87
2018-02-09T15:46:05.591Z,76.05
2018-02-09T15:48:34.643Z,71.35
2018-02-09T15:51:04.473Z,63.97
2018-02-09T15:53:34.317Z,71.62
2018-02-09T15:56:04.913Z,66.53
2018-02-09T15:58:34.679Z,81.40
2018-02-09T16:01:04.911Z,68.53
2018-02-09T16:03:34.701Z,73.35
2018-02-09T16:06:03.703Z,74.22
2018-02-09T16:08:33.700Z,74.15
2018-02-09T16:11:04.850Z,79.22
2018-02-09T16:13:33.941Z,68.80
2018-02-09T16:16:03.985Z,76.43
2018-02-09T16:18:33.785Z,67.32
2018-02-09T16:21:03.579Z,78.70
2018-02-09T16:23:33.606Z,88.07
2018-02-09T16:26:02.773Z,84.10
2018-02-09T16:28:32.182Z,71.65
2018-02-09T16:31:02.814Z,88.40
2018-02-09T16:33:31.905Z,75.00
2018-02-09T16:36:01.600Z,87.57
2018-02-09T16:38:30.702Z,83.43
2018-02-09T16:41:00.135Z,84.07
2018-02-09T16:43:29.662Z,86.45
2018-02-09T16:45:59.454Z,87.95
2018-02-09T16:48:28.447Z,87.95
2018-02-09T16:50:58.325Z,85.53
2018-02-09T16:53:27.332Z,83.75
2018-02-09T16:55:56.505Z,84.03
2018-02-09T16:58:25.602Z,95.68
2018-02-09T17:00:54.615Z,92.07
2018-02-09T17:03:23.639Z,81.68
2018-02-09T17:05:53.444Z,95.18
2018-02-09T17:08:22.539Z,92.20
2018-02-09T17:10:51.606Z,87.07
2018-02-09T17:13:20.806Z,97.78
2018-02-09T17:15:49.905Z,96.53
2018-02-09T17:18:19.117Z,98.80
2018-02-09T17:20:49.041Z,107.85
2018-02-09T17:23:19.023Z,98.28
2018-02-09T17:25:48.053Z,98.05
2018-02-09T17:28:17.867Z,99.32
2018-02-09T17:30:47.634Z,98.18
2018-02-09T17:33:17.411Z,88.55
2018-02-09T17:35:50.418Z,91.60
2018-02-09T17:38:20.092Z,89.07
2018-02-09T17:40:49.831Z,82.78
2018-02-09T17:43:18.863Z,82.97
2018-02-09T17:45:48.091Z,94.32
2018-02-09T17:48:18.258Z,96.85
2018-02-09T17:50:47.390Z,97.93
2018-02-09T17:53:16.433Z,77.80
2018-02-09T17:55:45.595Z,86.82
2018-02-09T17:58:15.343Z,82.05
2018-02-09T18:00:44.430Z,91.15
2018-02-09T18:03:14.202Z,89.45
2018-02-09T18:05:44.453Z,92.55
2018-02-09T18:08:14.219Z,82.40
2018-02-09T18:10:43.392Z,82.62
2018-02-09T18:13:12.388Z,89.18
2018-02-09T18:15:41.520Z,84.80
2018-02-09T18:18:10.526Z,90.53
2018-02-09T18:20:40.324Z,87.97
2018-02-09T18:23:13.094Z,74.10
2018-02-09T18:25:42.141Z,68.30
2018-02-09T18:28:12.340Z,75.47
2018-02-09T18:30:42.105Z,82.20
2018-02-09T18:33:11.941Z,73.35
2018-02-09T18:35:40.968Z,80.45
2018-02-09T18:38:11.049Z,71.25
2018-02-09T18:40:40.031Z,84.57
2018-02-09T18:43:13.577Z,72.72
2018-02-09T18:45:43.409Z,72.57
2018-02-09T18:48:12.389Z,74.57
2018-02-09T18:50:41.397Z,68.43
2018-02-09T18:53:10.388Z,78.82
2018-02-09T18:55:39.461Z,76.70
2018-02-09T18:58:09.216Z,73.18
2018-02-09T19:00:38.210Z,86.82
2018-02-09T19:03:07.284Z,74.97
2018-02-09T19:05:36.262Z,68.53
2018-02-09T19:08:05.347Z,62.10
2018-02-09T19:10:35.108Z,76.50
2018-02-09T19:13:04.873Z,78.28
2018-02-09T19:15:34.637Z,75.72
2018-02-09T19:18:04.106Z,78.72
2018-02-09T19:20:33.049Z,78.70
2018-02-09T19:23:02.777Z,68.22
2018-02-09T19:25:32.493Z,77.62
2018-02-09T19:28:02.801Z,76.15
2018-02-09T19:30:31.887Z,80.87
2018-02-09T19:33:04.672Z,74.82
2018-02-09T19:35:33.664Z,84.47
2018-02-09T19:38:02.762Z,72.12
2018-02-09T19:40:31.741Z,81.87
2018-02-09T19:43:01.516Z,80.93
2018-02-09T19:45:30.534Z,79.05
2018-02-09T19:47:59.549Z,76.55
2018-02-09T19:50:28.629Z,70.32
2018-02-09T19:52:57.690Z,80.00
2018-02-09T19:55:26.776Z,80.70
2018-02-09T19:57:55.786Z,81.22
2018-02-09T20:00:24.795Z,76.72
2018-02-09T20:02:53.821Z,75.12
2018-02-09T20:05:53.754Z,79.37
2018-02-09T20:08:23.493Z,74.95
2018-02-09T20:10:52.522Z,68.62
2018-02-09T20:13:21.468Z,75.35
2018-02-09T20:15:50.545Z,67.00
2018-02-09T20:18:19.582Z,66.75
2018-02-09T20:20:48.585Z,72.65
2018-02-09T20:23:17.579Z,72.30
2018-02-09T20:25:46.575Z,76.20
2018-02-09T20:28:15.574Z,70.28
2018-02-09T20:30:45.324Z,69.22
2018-02-09T20:33:15.369Z,71.25
2018-02-09T20:35:44.342Z,69.35
2018-02-09T20:38:13.332Z,65.62
2018-02-09T20:40:43.040Z,63.85
2018-02-09T20:43:12.781Z,73.53
2018-02-09T20:45:41.813Z,57.40
2018-02-09T20:48:10.772Z,69.53
2018-02-09T20:50:39.763Z,65.82
2018-02-09T20:53:09.562Z,72.45
2018-02-09T20:55:38.590Z,68.47
2018-02-09T20:58:07.757Z,73.55
2018-02-09T21:00:37.527Z,66.72
2018-02-09T21:03:07.335Z,68.65
2018-02-09T21:05:37.107Z,67.72
2018-02-09T21:08:06.148Z,63.80
2018-02-09T21:10:35.940Z,64.90
2018-02-09T21:13:05.757Z,62.22
2018-02-09T21:15:35.010Z,69.22
2018-02-09T21:18:04.545Z,69.72
2018-02-09T21:20:33.504Z,68.20
2018-02-09T21:23:02.582Z,63.72
2018-02-09T21:25:31.641Z,63.08
2018-02-09T21:28:00.777Z,71.25
2018-02-09T21:30:29.741Z,64.28
2018-02-09T21:32:58.831Z,66.80
2018-02-09T21:35:28.728Z,65.35
2018-02-09T21:37:57.696Z,62.08
2018-02-09T21:40:26.665Z,68.28
2018-02-09T21:42:55.681Z,67.87
2018-02-09T21:45:24.853Z,58.53
2018-02-09T21:47:53.863Z,68.55
2018-02-09T21:50:22.969Z,79.45
2018-02-09T21:52:52.185Z,74.45
2018-02-09T21:56:40.693Z,74.28
2018-02-09T21:59:09.638Z,77.82
2018-02-09T22:01:38.635Z,63.97
2018-02-09T22:04:07.630Z,75.87
2018-02-09T22:06:36.723Z,72.10
2018-02-09T22:09:05.839Z,79.40
2018-02-09T22:11:35.685Z,80.40
2018-02-09T22:14:07.300Z,77.00
2018-02-09T22:16:36.460Z,69.80
2018-02-09T22:19:05.448Z,78.60
2018-02-09T22:21:34.464Z,72.80
2018-02-09T22:24:03.836Z,83.65
2018-02-09T22:26:33.080Z,77.55
2018-02-09T22:29:02.093Z,75.80
2018-02-09T22:31:31.854Z,86.60
2018-02-09T22:34:00.873Z,84.62
2018-02-09T22:36:29.837Z,82.68
2018-02-09T22:38:58.833Z,76.18
2018-02-09T22:41:27.865Z,85.57
2018-02-09T22:43:57.626Z,88.85
2018-02-09T22:46:26.596Z,76.60
2018-02-09T22:48:55.592Z,76.50
2018-02-09T22:51:24.524Z,68.78
2018-02-09T22:53:58.960Z,95.18
2018-02-09T22:56:27.927Z,71.75
2018-02-09T22:58:56.902Z,81.37
2018-02-09T23:01:25.879Z,78.85
2018-02-09T23:03:54.852Z,80.97
2018-02-09T23:06:23.781Z,85.60
2018-02-09T23:08:52.805Z,85.32
2018-02-09T23:11:21.794Z,77.55
2018-02-09T23:13:50.753Z,82.18
2018-02-09T23:16:24.181Z,69.95
2018-02-09T23:18:56.784Z,75.95
2018-02-09T23:21:25.717Z,73.43
2018-02-09T23:23:54.716Z,91.78
2018-02-09T23:26:23.775Z,83.10
2018-02-09T23:28:53.560Z,85.47
2018-02-09T23:31:22.550Z,97.90
2018-02-09T23:33:51.487Z,85.97
2018-02-09T23:36:20.471Z,85.12
2018-02-09T23:38:50.196Z,94.45
2018-02-09T23:41:19.905Z,86.93
2018-02-09T23:43:48.850Z,84.65
2018-02-09T23:46:23.965Z,84.90
2018-02-09T23:48:53.748Z,88.72
2018-02-09T23:51:22.690Z,87.57
2018-02-09T23:53:51.983Z,93.37
2018-02-09T23:56:20.940Z,91.50
2018-02-09T23:58:49.920Z,91.85
